MDST/STI METAR and TAF weather

Enter ICAO airport designator
Station Type Date Time Source
MDST METAR 2018/12/10 02:00 UTC NOAA

MDST 100200Z 11012KT 9999 FEW018 23/23 Q1017


Station Type Date Time Source
MDST Decoded METAR 2018/12/10 02:00 UTC NOAA

Santiago, Dominican Republic (MDST) 19-27N 070-42W
Dec 09, 2018 - 09:00 PM EST / 2018.12.10 0200 UTC
Wind: from the ESE (110 degrees) at 14 MPH (12 KT):0
Visibility: greater than 7 mile(s):0
Sky conditions: mostly clear
Temperature: 73 F (23 C)
Dew Point: 73 F (23 C)
Relative Humidity: 100%
Pressure (altimeter): 30.03 in. Hg (1017 hPa)
ob: MDST 100200Z 11012KT 9999 FEW018 23/23 Q1017
cycle: 2

Station Type Date Time Source
MDST TAF 2018/12/09 18:31 UTC NOAA

TAF MDST 091600Z 0918/1018 12015KT 9999 SCT023


Example: see airport list